sensor_id;sensor_type;location;lat;lon;timestamp;temperature;humidity
9768;DHT22;4923;52.520;13.494;2023-09-07T00:00:55;18.50;99.90
9768;DHT22;4923;52.520;13.494;2023-09-07T00:03:44;18.50;99.90
9768;DHT22;4923;52.520;13.494;2023-09-07T00:06:32;18.40;99.90
9768;DHT22;4923;52.520;13.494;2023-09-07T00:09:20;18.40;99.90
9768;DHT22;4923;52.520;13.494;2023-09-07T00:12:07;18.40;99.90
9768;DHT22;4923;52.520;13.494;2023-09-07T00:14:54;18.30;99.90
9768;DHT22;4923;52.520;13.494;2023-09-07T00:17:41;18.40;99.90
9768;DHT22;4923;52.520;13.494;2023-09-07T00:20:28;18.30;99.90
9768;DHT22;4923;52.520;13.494;2023-09-07T00:23:16;18.30;99.90
9768;DHT22;4923;52.520;13.494;2023-09-07T00:26:03;18.20;99.90
9768;DHT22;4923;52.520;13.494;2023-09-07T00:28:50;18.20;99.90
9768;DHT22;4923;52.520;13.494;2023-09-07T00:31:37;18.10;99.90
9768;DHT22;4923;52.520;13.494;2023-09-07T00:34:24;18.10;99.90
9768;DHT22;4923;52.520;13.494;2023-09-07T00:37:10;18.10;99.90
9768;DHT22;4923;52.520;13.494;2023-09-07T00:39:59;18.10;99.90
9768;DHT22;4923;52.520;13.494;2023-09-07T00:42:46;18.10;99.90
9768;DHT22;4923;52.520;13.494;2023-09-07T00:45:33;18.00;99.90
9768;DHT22;4923;52.520;13.494;2023-09-07T00:48:19;18.00;99.90
9768;DHT22;4923;52.520;13.494;2023-09-07T00:51:07;18.00;99.90
9768;DHT22;4923;52.520;13.494;2023-09-07T00:53:54;17.90;99.90
9768;DHT22;4923;52.520;13.494;2023-09-07T00:56:42;17.90;99.90
9768;DHT22;4923;52.520;13.494;2023-09-07T00:59:29;18.10;99.90
9768;DHT22;4923;52.520;13.494;2023-09-07T01:02:16;18.00;99.90
9768;DHT22;4923;52.520;13.494;2023-09-07T01:05:04;18.00;99.90
9768;DHT22;4923;52.520;13.494;2023-09-07T01:07:54;18.10;99.90
9768;DHT22;4923;52.520;13.494;2023-09-07T01:10:44;18.00;99.90
9768;DHT22;4923;52.520;13.494;2023-09-07T01:13:32;18.00;99.90
9768;DHT22;4923;52.520;13.494;2023-09-07T01:16:19;17.90;99.90
9768;DHT22;4923;52.520;13.494;2023-09-07T01:19:07;17.80;99.90
9768;DHT22;4923;52.520;13.494;2023-09-07T01:21:57;17.70;99.90
9768;DHT22;4923;52.520;13.494;2023-09-07T01:24:45;17.70;99.90
9768;DHT22;4923;52.520;13.494;2023-09-07T01:27:33;17.60;99.90
9768;DHT22;4923;52.520;13.494;2023-09-07T01:30:20;17.60;99.90
9768;DHT22;4923;52.520;13.494;2023-09-07T01:33:06;17.60;99.90
9768;DHT22;4923;52.520;13.494;2023-09-07T01:35:54;17.60;99.90
9768;DHT22;4923;52.520;13.494;2023-09-07T01:38:42;17.60;99.90
9768;DHT22;4923;52.520;13.494;2023-09-07T01:41:29;17.50;99.90
9768;DHT22;4923;52.520;13.494;2023-09-07T01:44:16;17.50;99.90
9768;DHT22;4923;52.520;13.494;2023-09-07T01:47:03;17.50;99.90
9768;DHT22;4923;52.520;13.494;2023-09-07T01:49:50;17.40;99.90
9768;DHT22;4923;52.520;13.494;2023-09-07T01:52:37;17.40;99.90
9768;DHT22;4923;52.520;13.494;2023-09-07T01:55:26;17.40;99.90
9768;DHT22;4923;52.520;13.494;2023-09-07T01:58:13;17.30;99.90
9768;DHT22;4923;52.520;13.494;2023-09-07T02:01:00;17.30;99.90
9768;DHT22;4923;52.520;13.494;2023-09-07T02:03:47;17.30;99.90
9768;DHT22;4923;52.520;13.494;2023-09-07T02:06:34;17.40;99.90
9768;DHT22;4923;52.520;13.494;2023-09-07T02:09:21;17.30;99.90
9768;DHT22;4923;52.520;13.494;2023-09-07T02:12:09;17.30;99.90
9768;DHT22;4923;52.520;13.494;2023-09-07T02:15:00;17.20;99.90
9768;DHT22;4923;52.520;13.494;2023-09-07T02:17:47;17.20;99.90
9768;DHT22;4923;52.520;13.494;2023-09-07T02:20:34;17.00;99.90
9768;DHT22;4923;52.520;13.494;2023-09-07T02:23:21;17.00;99.90
9768;DHT22;4923;52.520;13.494;2023-09-07T02:26:08;17.00;99.90
9768;DHT22;4923;52.520;13.494;2023-09-07T02:28:56;16.90;99.90
9768;DHT22;4923;52.520;13.494;2023-09-07T02:31:43;17.00;99.90
9768;DHT22;4923;52.520;13.494;2023-09-07T02:34:30;17.00;99.90
9768;DHT22;4923;52.520;13.494;2023-09-07T02:37:17;17.00;99.90
9768;DHT22;4923;52.520;13.494;2023-09-07T02:40:04;16.90;99.90
9768;DHT22;4923;52.520;13.494;2023-09-07T02:42:55;17.00;99.90
9768;DHT22;4923;52.520;13.494;2023-09-07T02:45:43;17.00;99.90
9768;DHT22;4923;52.520;13.494;2023-09-07T02:48:30;17.00;99.90
9768;DHT22;4923;52.520;13.494;2023-09-07T02:51:17;17.00;99.90
9768;DHT22;4923;52.520;13.494;2023-09-07T02:54:04;16.90;99.90
9768;DHT22;4923;52.520;13.494;2023-09-07T02:56:51;16.90;99.90
9768;DHT22;4923;52.520;13.494;2023-09-07T02:59:38;16.90;99.90
9768;DHT22;4923;52.520;13.494;2023-09-07T03:02:27;16.80;99.90
9768;DHT22;4923;52.520;13.494;2023-09-07T03:05:14;16.70;99.90
9768;DHT22;4923;52.520;13.494;2023-09-07T03:08:01;16.70;99.90
9768;DHT22;4923;52.520;13.494;2023-09-07T03:10:49;16.80;99.90
9768;DHT22;4923;52.520;13.494;2023-09-07T03:13:36;16.90;99.90
9768;DHT22;4923;52.520;13.494;2023-09-07T03:16:23;16.80;99.90
9768;DHT22;4923;52.520;13.494;2023-09-07T03:19:11;16.70;99.90
9768;DHT22;4923;52.520;13.494;2023-09-07T03:21:57;16.70;99.90
9768;DHT22;4923;52.520;13.494;2023-09-07T03:24:45;16.70;99.90
9768;DHT22;4923;52.520;13.494;2023-09-07T03:27:31;16.60;99.90
9768;DHT22;4923;52.520;13.494;2023-09-07T03:30:19;16.60;99.90
9768;DHT22;4923;52.520;13.494;2023-09-07T03:33:06;16.60;99.90
9768;DHT22;4923;52.520;13.494;2023-09-07T03:35:54;16.60;99.90
9768;DHT22;4923;52.520;13.494;2023-09-07T03:38:44;16.60;99.90
9768;DHT22;4923;52.520;13.494;2023-09-07T03:41:31;16.50;99.90
9768;DHT22;4923;52.520;13.494;2023-09-07T03:44:18;16.50;99.90
9768;DHT22;4923;52.520;13.494;2023-09-07T03:47:04;16.40;99.90
9768;DHT22;4923;52.520;13.494;2023-09-07T03:49:52;16.40;99.90
9768;DHT22;4923;52.520;13.494;2023-09-07T03:52:40;16.40;99.90
9768;DHT22;4923;52.520;13.494;2023-09-07T03:55:27;16.40;99.90
9768;DHT22;4923;52.520;13.494;2023-09-07T03:58:14;16.40;99.90
9768;DHT22;4923;52.520;13.494;2023-09-07T04:01:01;16.30;99.90
9768;DHT22;4923;52.520;13.494;2023-09-07T04:03:48;16.30;99.90
9768;DHT22;4923;52.520;13.494;2023-09-07T04:06:35;16.20;99.90
9768;DHT22;4923;52.520;13.494;2023-09-07T04:09:24;16.20;99.90
9768;DHT22;4923;52.520;13.494;2023-09-07T04:12:11;16.30;99.90
9768;DHT22;4923;52.520;13.494;2023-09-07T04:14:58;16.30;99.90
9768;DHT22;4923;52.520;13.494;2023-09-07T04:17:45;16.30;99.90
9768;DHT22;4923;52.520;13.494;2023-09-07T04:20:32;16.30;99.90
9768;DHT22;4923;52.520;13.494;2023-09-07T04:23:19;16.40;99.90
9768;DHT22;4923;52.520;13.494;2023-09-07T04:26:09;16.50;99.90
9768;DHT22;4923;52.520;13.494;2023-09-07T04:28:56;16.50;99.90
9768;DHT22;4923;52.520;13.494;2023-09-07T04:31:43;16.50;99.90
9768;DHT22;4923;52.520;13.494;2023-09-07T04:34:30;16.50;99.90
9768;DHT22;4923;52.520;13.494;2023-09-07T04:37:17;16.60;99.90
9768;DHT22;4923;52.520;13.494;2023-09-07T04:40:06;16.50;99.90
9768;DHT22;4923;52.520;13.494;2023-09-07T04:42:54;16.60;99.90
9768;DHT22;4923;52.520;13.494;2023-09-07T04:45:45;16.70;99.90
9768;DHT22;4923;52.520;13.494;2023-09-07T04:48:32;16.70;99.90
9768;DHT22;4923;52.520;13.494;2023-09-07T04:51:20;16.70;99.90
9768;DHT22;4923;52.520;13.494;2023-09-07T04:54:08;16.70;99.90
9768;DHT22;4923;52.520;13.494;2023-09-07T04:56:54;16.70;99.90
9768;DHT22;4923;52.520;13.494;2023-09-07T04:59:42;16.70;99.90
9768;DHT22;4923;52.520;13.494;2023-09-07T05:02:29;16.70;99.90
9768;DHT22;4923;52.520;13.494;2023-09-07T05:05:16;16.80;99.90
9768;DHT22;4923;52.520;13.494;2023-09-07T05:08:04;16.90;99.90
9768;DHT22;4923;52.520;13.494;2023-09-07T05:10:54;17.00;99.90
9768;DHT22;4923;52.520;13.494;2023-09-07T05:13:41;17.10;99.90
9768;DHT22;4923;52.520;13.494;2023-09-07T05:16:29;17.20;99.90
9768;DHT22;4923;52.520;13.494;2023-09-07T05:19:16;17.20;99.90
9768;DHT22;4923;52.520;13.494;2023-09-07T05:22:03;17.30;99.90
9768;DHT22;4923;52.520;13.494;2023-09-07T05:24:50;17.40;99.90
9768;DHT22;4923;52.520;13.494;2023-09-07T05:27:37;17.50;99.90
9768;DHT22;4923;52.520;13.494;2023-09-07T05:30:24;17.60;99.90
9768;DHT22;4923;52.520;13.494;2023-09-07T05:33:14;17.80;99.90
9768;DHT22;4923;52.520;13.494;2023-09-07T05:36:02;17.90;99.90
9768;DHT22;4923;52.520;13.494;2023-09-07T05:38:49;17.90;99.90
9768;DHT22;4923;52.520;13.494;2023-09-07T05:41:35;18.00;99.90
9768;DHT22;4923;52.520;13.494;2023-09-07T05:44:22;18.00;99.90
9768;DHT22;4923;52.520;13.494;2023-09-07T05:47:09;18.10;99.90
9768;DHT22;4923;52.520;13.494;2023-09-07T05:49:57;18.10;99.90
9768;DHT22;4923;52.520;13.494;2023-09-07T05:52:44;18.20;99.90
9768;DHT22;4923;52.520;13.494;2023-09-07T05:55:31;18.20;99.90
9768;DHT22;4923;52.520;13.494;2023-09-07T05:58:18;18.30;99.90
9768;DHT22;4923;52.520;13.494;2023-09-07T06:01:05;18.40;99.90
9768;DHT22;4923;52.520;13.494;2023-09-07T06:03:52;18.60;99.90
9768;DHT22;4923;52.520;13.494;2023-09-07T06:06:40;18.60;99.90
9768;DHT22;4923;52.520;13.494;2023-09-07T06:09:27;18.70;99.90
9768;DHT22;4923;52.520;13.494;2023-09-07T06:12:14;18.80;99.90
9768;DHT22;4923;52.520;13.494;2023-09-07T06:15:01;18.90;99.90
9768;DHT22;4923;52.520;13.494;2023-09-07T06:17:48;19.00;99.90
9768;DHT22;4923;52.520;13.494;2023-09-07T06:20:36;19.20;99.90
9768;DHT22;4923;52.520;13.494;2023-09-07T06:23:24;19.20;99.90
9768;DHT22;4923;52.520;13.494;2023-09-07T06:26:11;19.40;99.90
9768;DHT22;4923;52.520;13.494;2023-09-07T06:28:57;19.50;99.90
9768;DHT22;4923;52.520;13.494;2023-09-07T06:31:44;19.60;99.90
9768;DHT22;4923;52.520;13.494;2023-09-07T06:34:31;19.70;99.90
9768;DHT22;4923;52.520;13.494;2023-09-07T06:37:18;19.70;99.90
9768;DHT22;4923;52.520;13.494;2023-09-07T06:40:07;19.90;99.90
9768;DHT22;4923;52.520;13.494;2023-09-07T06:42:55;19.90;99.90
9768;DHT22;4923;52.520;13.494;2023-09-07T06:45:43;20.00;99.90
9768;DHT22;4923;52.520;13.494;2023-09-07T06:48:30;20.10;99.90
9768;DHT22;4923;52.520;13.494;2023-09-07T06:51:17;20.30;99.90
9768;DHT22;4923;52.520;13.494;2023-09-07T06:54:04;20.40;99.90
9768;DHT22;4923;52.520;13.494;2023-09-07T06:56:52;20.50;99.90
9768;DHT22;4923;52.520;13.494;2023-09-07T06:59:39;20.60;99.90
9768;DHT22;4923;52.520;13.494;2023-09-07T07:02:26;20.70;99.90
9768;DHT22;4923;52.520;13.494;2023-09-07T07:05:13;20.70;99.90
9768;DHT22;4923;52.520;13.494;2023-09-07T07:08:00;20.80;99.90
9768;DHT22;4923;52.520;13.494;2023-09-07T07:10:47;20.90;99.90
9768;DHT22;4923;52.520;13.494;2023-09-07T07:13:35;21.10;99.90
9768;DHT22;4923;52.520;13.494;2023-09-07T07:16:22;21.20;99.90
9768;DHT22;4923;52.520;13.494;2023-09-07T07:19:09;21.30;99.90
9768;DHT22;4923;52.520;13.494;2023-09-07T07:21:56;21.50;99.90
9768;DHT22;4923;52.520;13.494;2023-09-07T07:24:43;21.60;99.90
9768;DHT22;4923;52.520;13.494;2023-09-07T07:27:30;21.60;99.90
9768;DHT22;4923;52.520;13.494;2023-09-07T07:30:18;21.80;99.90
9768;DHT22;4923;52.520;13.494;2023-09-07T07:33:05;21.90;99.90
9768;DHT22;4923;52.520;13.494;2023-09-07T07:35:52;22.00;99.90
9768;DHT22;4923;52.520;13.494;2023-09-07T07:38:40;22.10;99.90
9768;DHT22;4923;52.520;13.494;2023-09-07T07:41:27;22.20;99.90
9768;DHT22;4923;52.520;13.494;2023-09-07T07:44:13;22.40;99.90
9768;DHT22;4923;52.520;13.494;2023-09-07T07:47:02;22.50;99.90
9768;DHT22;4923;52.520;13.494;2023-09-07T07:49:49;22.60;99.90
9768;DHT22;4923;52.520;13.494;2023-09-07T07:52:35;22.70;99.90
9768;DHT22;4923;52.520;13.494;2023-09-07T07:55:22;22.80;99.90
9768;DHT22;4923;52.520;13.494;2023-09-07T07:58:10;22.90;99.90
9768;DHT22;4923;52.520;13.494;2023-09-07T08:00:56;22.90;99.90
9768;DHT22;4923;52.520;13.494;2023-09-07T08:03:45;23.10;99.90
9768;DHT22;4923;52.520;13.494;2023-09-07T08:06:32;23.20;99.90
9768;DHT22;4923;52.520;13.494;2023-09-07T08:09:20;23.30;99.90
9768;DHT22;4923;52.520;13.494;2023-09-07T08:12:07;23.40;99.90
9768;DHT22;4923;52.520;13.494;2023-09-07T08:14:54;23.50;99.90
9768;DHT22;4923;52.520;13.494;2023-09-07T08:17:41;23.60;99.90
9768;DHT22;4923;52.520;13.494;2023-09-07T08:20:32;23.70;99.90
9768;DHT22;4923;52.520;13.494;2023-09-07T08:23:19;23.70;99.90
9768;DHT22;4923;52.520;13.494;2023-09-07T08:26:06;23.80;99.90
9768;DHT22;4923;52.520;13.494;2023-09-07T08:28:55;23.90;99.90
9768;DHT22;4923;52.520;13.494;2023-09-07T08:31:41;24.00;99.90
9768;DHT22;4923;52.520;13.494;2023-09-07T08:34:31;24.10;99.90
9768;DHT22;4923;52.520;13.494;2023-09-07T08:37:19;24.20;99.90
9768;DHT22;4923;52.520;13.494;2023-09-07T08:40:07;24.30;99.90
9768;DHT22;4923;52.520;13.494;2023-09-07T08:42:54;24.40;99.90
9768;DHT22;4923;52.520;13.494;2023-09-07T08:45:47;24.50;99.90
9768;DHT22;4923;52.520;13.494;2023-09-07T08:48:36;24.60;99.90
9768;DHT22;4923;52.520;13.494;2023-09-07T08:51:24;24.60;99.90
9768;DHT22;4923;52.520;13.494;2023-09-07T08:54:15;24.70;99.90
9768;DHT22;4923;52.520;13.494;2023-09-07T08:57:02;24.70;99.90
9768;DHT22;4923;52.520;13.494;2023-09-07T08:59:50;24.80;99.90
9768;DHT22;4923;52.520;13.494;2023-09-07T09:02:37;24.90;99.90
9768;DHT22;4923;52.520;13.494;2023-09-07T09:05:27;24.90;99.90
9768;DHT22;4923;52.520;13.494;2023-09-07T09:08:15;25.00;99.90
9768;DHT22;4923;52.520;13.494;2023-09-07T09:11:07;25.10;99.90
9768;DHT22;4923;52.520;13.494;2023-09-07T09:13:54;25.20;99.90
9768;DHT22;4923;52.520;13.494;2023-09-07T09:16:47;25.20;99.90
9768;DHT22;4923;52.520;13.494;2023-09-07T09:19:35;25.40;99.90
9768;DHT22;4923;52.520;13.494;2023-09-07T09:22:22;25.50;99.90
9768;DHT22;4923;52.520;13.494;2023-09-07T09:25:10;25.60;99.90
9768;DHT22;4923;52.520;13.494;2023-09-07T09:27:58;25.60;99.90
9768;DHT22;4923;52.520;13.494;2023-09-07T09:30:45;25.60;99.90
9768;DHT22;4923;52.520;13.494;2023-09-07T09:33:32;25.80;99.90
9768;DHT22;4923;52.520;13.494;2023-09-07T09:36:20;25.90;99.90
9768;DHT22;4923;52.520;13.494;2023-09-07T09:39:07;25.90;99.90
9768;DHT22;4923;52.520;13.494;2023-09-07T09:41:56;25.90;99.90
9768;DHT22;4923;52.520;13.494;2023-09-07T09:44:45;26.00;99.90
9768;DHT22;4923;52.520;13.494;2023-09-07T09:47:33;26.10;99.90
9768;DHT22;4923;52.520;13.494;2023-09-07T09:50:22;26.10;99.90
9768;DHT22;4923;52.520;13.494;2023-09-07T09:53:10;26.20;99.90
9768;DHT22;4923;52.520;13.494;2023-09-07T09:56:01;26.30;99.90
9768;DHT22;4923;52.520;13.494;2023-09-07T09:58:48;26.40;99.90
9768;DHT22;4923;52.520;13.494;2023-09-07T10:01:43;26.40;99.90
9768;DHT22;4923;52.520;13.494;2023-09-07T10:04:30;26.50;99.90
9768;DHT22;4923;52.520;13.494;2023-09-07T10:07:19;26.60;99.90
9768;DHT22;4923;52.520;13.494;2023-09-07T10:10:09;26.60;99.90
9768;DHT22;4923;52.520;13.494;2023-09-07T10:12:56;26.70;99.90
9768;DHT22;4923;52.520;13.494;2023-09-07T10:15:43;26.70;99.90
9768;DHT22;4923;52.520;13.494;2023-09-07T10:18:35;26.80;99.90
9768;DHT22;4923;52.520;13.494;2023-09-07T10:21:24;26.90;99.90
9768;DHT22;4923;52.520;13.494;2023-09-07T10:24:23;26.90;99.90
9768;DHT22;4923;52.520;13.494;2023-09-07T10:27:11;26.90;99.90
9768;DHT22;4923;52.520;13.494;2023-09-07T10:29:58;26.90;99.90
9768;DHT22;4923;52.520;13.494;2023-09-07T10:32:46;27.00;99.90
9768;DHT22;4923;52.520;13.494;2023-09-07T10:35:35;27.20;99.90
9768;DHT22;4923;52.520;13.494;2023-09-07T10:38:23;27.20;99.90
9768;DHT22;4923;52.520;13.494;2023-09-07T10:41:10;27.30;99.90
9768;DHT22;4923;52.520;13.494;2023-09-07T10:43:58;27.30;99.90
9768;DHT22;4923;52.520;13.494;2023-09-07T10:46:45;27.30;99.90
9768;DHT22;4923;52.520;13.494;2023-09-07T10:49:32;27.40;99.90
9768;DHT22;4923;52.520;13.494;2023-09-07T10:52:20;27.30;99.90
9768;DHT22;4923;52.520;13.494;2023-09-07T10:55:08;27.30;99.90
9768;DHT22;4923;52.520;13.494;2023-09-07T10:57:56;27.40;99.90
9768;DHT22;4923;52.520;13.494;2023-09-07T11:00:43;27.40;99.90
9768;DHT22;4923;52.520;13.494;2023-09-07T11:03:30;27.50;99.90
9768;DHT22;4923;52.520;13.494;2023-09-07T11:06:19;27.40;99.90
9768;DHT22;4923;52.520;13.494;2023-09-07T11:09:08;27.50;99.90
9768;DHT22;4923;52.520;13.494;2023-09-07T11:11:56;27.40;99.90
9768;DHT22;4923;52.520;13.494;2023-09-07T11:14:43;27.50;99.90
9768;DHT22;4923;52.520;13.494;2023-09-07T11:17:30;27.40;99.90
9768;DHT22;4923;52.520;13.494;2023-09-07T11:20:21;27.50;99.90
9768;DHT22;4923;52.520;13.494;2023-09-07T11:23:08;27.50;99.90
9768;DHT22;4923;52.520;13.494;2023-09-07T11:25:56;27.60;99.90
9768;DHT22;4923;52.520;13.494;2023-09-07T11:28:45;27.60;99.90
9768;DHT22;4923;52.520;13.494;2023-09-07T11:31:32;27.50;99.90
9768;DHT22;4923;52.520;13.494;2023-09-07T11:34:19;27.50;99.90
9768;DHT22;4923;52.520;13.494;2023-09-07T11:37:06;27.50;99.90
9768;DHT22;4923;52.520;13.494;2023-09-07T11:39:53;27.40;99.90
9768;DHT22;4923;52.520;13.494;2023-09-07T11:42:41;27.60;99.90
9768;DHT22;4923;52.520;13.494;2023-09-07T11:45:28;27.60;99.90
9768;DHT22;4923;52.520;13.494;2023-09-07T11:48:15;27.70;99.90
9768;DHT22;4923;52.520;13.494;2023-09-07T11:51:02;27.70;99.90
9768;DHT22;4923;52.520;13.494;2023-09-07T11:53:50;27.80;99.90
9768;DHT22;4923;52.520;13.494;2023-09-07T11:56:37;27.70;99.90
9768;DHT22;4923;52.520;13.494;2023-09-07T11:59:29;27.70;99.90
9768;DHT22;4923;52.520;13.494;2023-09-07T12:02:18;27.70;99.90
9768;DHT22;4923;52.520;13.494;2023-09-07T12:05:07;27.80;99.90
9768;DHT22;4923;52.520;13.494;2023-09-07T12:07:55;27.90;99.90
9768;DHT22;4923;52.520;13.494;2023-09-07T12:10:41;28.00;99.90
9768;DHT22;4923;52.520;13.494;2023-09-07T12:13:28;28.00;99.90
9768;DHT22;4923;52.520;13.494;2023-09-07T12:16:16;27.90;99.90
9768;DHT22;4923;52.520;13.494;2023-09-07T12:19:03;27.90;99.90
9768;DHT22;4923;52.520;13.494;2023-09-07T12:21:51;28.00;99.90
9768;DHT22;4923;52.520;13.494;2023-09-07T12:24:38;28.00;99.90
9768;DHT22;4923;52.520;13.494;2023-09-07T12:27:25;28.00;99.90
9768;DHT22;4923;52.520;13.494;2023-09-07T12:30:12;28.00;99.90
9768;DHT22;4923;52.520;13.494;2023-09-07T12:33:00;28.00;99.90
9768;DHT22;4923;52.520;13.494;2023-09-07T12:35:47;28.10;99.90
9768;DHT22;4923;52.520;13.494;2023-09-07T12:38:34;28.20;99.90
9768;DHT22;4923;52.520;13.494;2023-09-07T12:41:21;28.20;99.90
9768;DHT22;4923;52.520;13.494;2023-09-07T12:44:08;28.30;99.90
9768;DHT22;4923;52.520;13.494;2023-09-07T12:46:55;28.30;99.90
9768;DHT22;4923;52.520;13.494;2023-09-07T12:49:43;28.30;99.90
9768;DHT22;4923;52.520;13.494;2023-09-07T12:52:30;28.20;99.90
9768;DHT22;4923;52.520;13.494;2023-09-07T12:55:17;28.20;99.90
9768;DHT22;4923;52.520;13.494;2023-09-07T12:58:04;28.10;99.90
9768;DHT22;4923;52.520;13.494;2023-09-07T13:00:51;28.20;99.90
9768;DHT22;4923;52.520;13.494;2023-09-07T13:03:38;28.20;99.90
9768;DHT22;4923;52.520;13.494;2023-09-07T13:06:26;28.10;99.90
9768;DHT22;4923;52.520;13.494;2023-09-07T13:09:13;28.20;99.90
9768;DHT22;4923;52.520;13.494;2023-09-07T13:12:00;28.30;99.90
9768;DHT22;4923;52.520;13.494;2023-09-07T13:14:47;28.40;99.90
9768;DHT22;4923;52.520;13.494;2023-09-07T13:17:34;28.40;99.90
9768;DHT22;4923;52.520;13.494;2023-09-07T13:20:21;28.50;99.90
9768;DHT22;4923;52.520;13.494;2023-09-07T13:23:09;28.50;99.90
9768;DHT22;4923;52.520;13.494;2023-09-07T13:25:57;28.50;99.90
9768;DHT22;4923;52.520;13.494;2023-09-07T13:28:46;28.50;99.90
9768;DHT22;4923;52.520;13.494;2023-09-07T13:31:32;28.50;99.90
9768;DHT22;4923;52.520;13.494;2023-09-07T13:34:21;28.60;99.90
9768;DHT22;4923;52.520;13.494;2023-09-07T13:37:08;28.60;99.90
9768;DHT22;4923;52.520;13.494;2023-09-07T13:39:56;28.50;99.90
9768;DHT22;4923;52.520;13.494;2023-09-07T13:42:43;28.50;99.90
9768;DHT22;4923;52.520;13.494;2023-09-07T13:45:30;28.40;99.90
9768;DHT22;4923;52.520;13.494;2023-09-07T13:48:17;28.50;99.90
9768;DHT22;4923;52.520;13.494;2023-09-07T13:51:04;28.40;99.90
9768;DHT22;4923;52.520;13.494;2023-09-07T13:53:52;28.40;99.90
9768;DHT22;4923;52.520;13.494;2023-09-07T13:56:40;28.40;99.90
9768;DHT22;4923;52.520;13.494;2023-09-07T13:59:27;28.40;99.90
9768;DHT22;4923;52.520;13.494;2023-09-07T14:02:18;28.40;99.90
9768;DHT22;4923;52.520;13.494;2023-09-07T14:05:05;28.40;99.90
9768;DHT22;4923;52.520;13.494;2023-09-07T14:07:53;28.30;99.90
9768;DHT22;4923;52.520;13.494;2023-09-07T14:10:42;28.30;99.90
9768;DHT22;4923;52.520;13.494;2023-09-07T14:13:31;28.30;99.90
9768;DHT22;4923;52.520;13.494;2023-09-07T14:16:20;28.40;99.90
9768;DHT22;4923;52.520;13.494;2023-09-07T14:19:07;28.30;99.90
9768;DHT22;4923;52.520;13.494;2023-09-07T14:21:54;28.40;99.90
9768;DHT22;4923;52.520;13.494;2023-09-07T14:24:41;28.30;99.90
9768;DHT22;4923;52.520;13.494;2023-09-07T14:27:28;28.30;99.90
9768;DHT22;4923;52.520;13.494;2023-09-07T14:30:16;28.30;99.90
9768;DHT22;4923;52.520;13.494;2023-09-07T14:33:04;28.30;99.90
9768;DHT22;4923;52.520;13.494;2023-09-07T14:35:51;28.30;99.90
9768;DHT22;4923;52.520;13.494;2023-09-07T14:38:39;28.30;99.90
9768;DHT22;4923;52.520;13.494;2023-09-07T14:41:27;28.30;99.90
9768;DHT22;4923;52.520;13.494;2023-09-07T14:44:15;28.30;99.90
9768;DHT22;4923;52.520;13.494;2023-09-07T14:47:04;28.30;99.90
9768;DHT22;4923;52.520;13.494;2023-09-07T14:49:52;28.20;99.90
9768;DHT22;4923;52.520;13.494;2023-09-07T14:52:39;28.20;99.90
9768;DHT22;4923;52.520;13.494;2023-09-07T14:55:29;28.20;99.90
9768;DHT22;4923;52.520;13.494;2023-09-07T14:58:17;28.10;99.90
9768;DHT22;4923;52.520;13.494;2023-09-07T15:01:04;28.10;99.90
9768;DHT22;4923;52.520;13.494;2023-09-07T15:03:52;28.00;99.90
9768;DHT22;4923;52.520;13.494;2023-09-07T15:06:39;28.00;99.90
9768;DHT22;4923;52.520;13.494;2023-09-07T15:09:26;28.00;99.90
9768;DHT22;4923;52.520;13.494;2023-09-07T15:12:14;28.00;99.90
9768;DHT22;4923;52.520;13.494;2023-09-07T15:15:00;27.90;99.90
9768;DHT22;4923;52.520;13.494;2023-09-07T15:17:48;27.90;99.90
9768;DHT22;4923;52.520;13.494;2023-09-07T15:20:36;27.90;99.90
9768;DHT22;4923;52.520;13.494;2023-09-07T15:23:23;27.80;99.90
9768;DHT22;4923;52.520;13.494;2023-09-07T15:26:10;27.80;99.90
9768;DHT22;4923;52.520;13.494;2023-09-07T15:28:56;27.70;99.90
9768;DHT22;4923;52.520;13.494;2023-09-07T15:31:43;27.70;99.90
9768;DHT22;4923;52.520;13.494;2023-09-07T15:34:30;27.70;99.90
9768;DHT22;4923;52.520;13.494;2023-09-07T15:37:18;27.70;99.90
9768;DHT22;4923;52.520;13.494;2023-09-07T15:40:06;27.70;99.90
9768;DHT22;4923;52.520;13.494;2023-09-07T15:42:53;27.70;99.90
9768;DHT22;4923;52.520;13.494;2023-09-07T15:45:40;27.70;99.90
9768;DHT22;4923;52.520;13.494;2023-09-07T15:48:27;27.70;99.90
9768;DHT22;4923;52.520;13.494;2023-09-07T15:51:14;27.60;99.90
9768;DHT22;4923;52.520;13.494;2023-09-07T15:54:02;27.50;99.90
9768;DHT22;4923;52.520;13.494;2023-09-07T15:56:50;27.50;99.90
9768;DHT22;4923;52.520;13.494;2023-09-07T15:59:37;27.50;99.90
9768;DHT22;4923;52.520;13.494;2023-09-07T16:02:24;27.40;99.90
9768;DHT22;4923;52.520;13.494;2023-09-07T16:05:11;27.30;99.90
9768;DHT22;4923;52.520;13.494;2023-09-07T16:07:58;27.30;99.90
9768;DHT22;4923;52.520;13.494;2023-09-07T16:10:46;27.20;99.90
9768;DHT22;4923;52.520;13.494;2023-09-07T16:13:33;27.20;99.90
9768;DHT22;4923;52.520;13.494;2023-09-07T16:16:21;27.10;99.90
9768;DHT22;4923;52.520;13.494;2023-09-07T16:19:08;27.10;99.90
9768;DHT22;4923;52.520;13.494;2023-09-07T16:21:55;27.00;99.90
9768;DHT22;4923;52.520;13.494;2023-09-07T16:24:42;26.90;99.90
9768;DHT22;4923;52.520;13.494;2023-09-07T16:27:30;26.80;99.90
9768;DHT22;4923;52.520;13.494;2023-09-07T16:30:17;26.80;99.90
9768;DHT22;4923;52.520;13.494;2023-09-07T16:33:04;26.70;99.90
9768;DHT22;4923;52.520;13.494;2023-09-07T16:35:51;26.70;99.90
9768;DHT22;4923;52.520;13.494;2023-09-07T16:38:38;26.50;99.90
9768;DHT22;4923;52.520;13.494;2023-09-07T16:41:25;26.40;99.90
9768;DHT22;4923;52.520;13.494;2023-09-07T16:44:13;26.40;99.90
9768;DHT22;4923;52.520;13.494;2023-09-07T16:47:00;26.40;99.90
9768;DHT22;4923;52.520;13.494;2023-09-07T16:49:47;26.30;99.90
9768;DHT22;4923;52.520;13.494;2023-09-07T16:52:34;26.20;99.90
9768;DHT22;4923;52.520;13.494;2023-09-07T16:55:21;26.10;99.90
9768;DHT22;4923;52.520;13.494;2023-09-07T16:58:08;25.90;99.90
9768;DHT22;4923;52.520;13.494;2023-09-07T17:00:56;25.80;99.90
9768;DHT22;4923;52.520;13.494;2023-09-07T17:03:43;25.70;99.90
9768;DHT22;4923;52.520;13.494;2023-09-07T17:06:30;25.60;99.90
9768;DHT22;4923;52.520;13.494;2023-09-07T17:09:17;25.50;99.90
9768;DHT22;4923;52.520;13.494;2023-09-07T17:12:04;25.50;99.90
9768;DHT22;4923;52.520;13.494;2023-09-07T17:14:51;25.40;99.90
9768;DHT22;4923;52.520;13.494;2023-09-07T17:17:40;25.40;99.90
9768;DHT22;4923;52.520;13.494;2023-09-07T17:20:26;25.30;99.90
9768;DHT22;4923;52.520;13.494;2023-09-07T17:23:13;25.20;99.90
9768;DHT22;4923;52.520;13.494;2023-09-07T17:26:01;25.10;99.90
9768;DHT22;4923;52.520;13.494;2023-09-07T17:28:48;25.00;99.90
9768;DHT22;4923;52.520;13.494;2023-09-07T17:31:37;24.90;99.90
9768;DHT22;4923;52.520;13.494;2023-09-07T17:34:25;24.80;99.90
9768;DHT22;4923;52.520;13.494;2023-09-07T17:37:12;24.60;99.90
9768;DHT22;4923;52.520;13.494;2023-09-07T17:39:59;24.40;99.90
9768;DHT22;4923;52.520;13.494;2023-09-07T17:42:46;24.30;99.90
9768;DHT22;4923;52.520;13.494;2023-09-07T17:45:33;24.10;99.90
9768;DHT22;4923;52.520;13.494;2023-09-07T17:48:20;24.00;99.90
9768;DHT22;4923;52.520;13.494;2023-09-07T17:51:08;23.90;99.90
9768;DHT22;4923;52.520;13.494;2023-09-07T17:53:55;23.70;99.90